Time;durP1;ratioP1;P1;durP2;ratioP2;P2;SDS_P1;SDS_P2;PMS_P1;PMS_P2;Temp;Humidity;BMP_temperature;BMP_pressure;BME280_temperature;BME280_humidity;BME280_pressure;Samples;Min_cycle;Max_cycle;Signal;HPM_P1;HPM_P2
2021/06/09 00:00:10;;;;;;;23.85;21.35;;;16.60;99.90;;;;;;5062208;28;20360;-73
2021/06/09 00:02:37;;;;;;;24.23;21.83;;;16.50;99.90;;;;;;5054202;28;20478;-74
2021/06/09 00:05:04;;;;;;;23.85;21.52;;;16.50;99.90;;;;;;5065503;28;20489;-74
2021/06/09 00:07:31;;;;;;;25.95;23.30;;;16.40;99.90;;;;;;5058578;28;20044;-73
2021/06/09 00:09:57;;;;;;;26.42;23.55;;;16.40;99.90;;;;;;5032978;28;20037;-75
2021/06/09 00:12:23;;;;;;;25.23;22.70;;;16.40;99.90;;;;;;5057593;28;20033;-74
2021/06/09 00:14:50;;;;;;;27.25;24.48;;;16.40;99.90;;;;;;5054496;28;20033;-74
2021/06/09 00:17:16;;;;;;;29.10;25.40;;;16.30;99.90;;;;;;5054146;28;20029;-73
2021/06/09 00:19:42;;;;;;;26.63;23.95;;;16.30;99.90;;;;;;5057946;28;20024;-74
2021/06/09 00:22:08;;;;;;;27.80;24.88;;;16.30;99.90;;;;;;5064965;28;20498;-74
2021/06/09 00:24:35;;;;;;;29.33;25.65;;;16.30;99.90;;;;;;5053898;28;20029;-74
2021/06/09 00:27:01;;;;;;;32.17;25.83;;;16.30;99.90;;;;;;5053875;28;20033;-74
2021/06/09 00:29:27;;;;;;;26.52;23.88;;;16.30;99.90;;;;;;5035188;28;20052;-73
2021/06/09 00:31:54;;;;;;;27.85;24.98;;;16.20;99.90;;;;;;5054037;28;20466;-74
2021/06/09 00:34:23;;;;;;;28.33;25.25;;;16.20;99.90;;;;;;5053271;28;20048;-74
2021/06/09 00:36:49;;;;;;;28.42;25.45;;;16.20;99.90;;;;;;5062338;28;20032;-74
2021/06/09 00:39:15;;;;;;;28.42;25.42;;;16.20;99.90;;;;;;5070729;28;20036;-74
2021/06/09 00:41:43;;;;;;;26.50;23.73;;;16.20;99.90;;;;;;5058040;28;20032;-73
2021/06/09 00:44:09;;;;;;;28.40;25.40;;;16.20;99.90;;;;;;5052916;28;20454;-74
2021/06/09 00:46:38;;;;;;;28.35;25.38;;;16.10;99.90;;;;;;5063504;28;20450;-74
2021/06/09 00:49:06;;;;;;;31.83;25.63;;;16.10;99.90;;;;;;5062966;28;20065;-73
2021/06/09 00:51:33;;;;;;;29.50;26.40;;;16.10;99.90;;;;;;5053100;28;20037;-74
2021/06/09 00:54:06;;;;;;;31.92;28.13;;;16.00;99.90;;;;;;5059752;28;20043;-74
2021/06/09 00:56:35;;;;;;;30.27;26.90;;;16.10;99.90;;;;;;5065565;28;20048;-74
2021/06/09 00:59:02;;;;;;;30.33;27.15;;;16.10;99.90;;;;;;5067226;28;20493;-74
2021/06/09 01:01:29;;;;;;;30.20;24.85;;;16.20;99.90;;;;;;5056524;28;20493;-74
2021/06/09 01:03:56;;;;;;;24.92;22.35;;;16.10;99.90;;;;;;5067096;28;20372;-74
2021/06/09 01:06:23;;;;;;;25.80;23.30;;;16.00;99.90;;;;;;5052604;28;20051;-74
2021/06/09 01:08:52;;;;;;;24.60;22.00;;;16.00;99.90;;;;;;5053133;28;20041;-74
2021/06/09 01:11:21;;;;;;;27.45;24.55;;;15.90;99.90;;;;;;5058166;28;20043;-74
2021/06/09 01:13:49;;;;;;;27.58;23.30;;;15.90;99.90;;;;;;5053776;28;20028;-74
2021/06/09 01:16:16;;;;;;;26.65;23.80;;;16.00;99.90;;;;;;5062781;28;20029;-74
2021/06/09 01:18:43;;;;;;;29.80;25.10;;;16.00;99.90;;;;;;5063140;28;20032;-74
2021/06/09 01:21:10;;;;;;;27.17;24.38;;;15.90;99.90;;;;;;5052175;28;20037;-74
2021/06/09 01:23:37;;;;;;;28.38;24.02;;;15.90;99.90;;;;;;5053247;28;20033;-74
2021/06/09 01:26:05;;;;;;;30.30;24.42;;;15.90;99.90;;;;;;5052420;28;20045;-74
2021/06/09 01:28:31;;;;;;;31.88;25.65;;;15.90;99.90;;;;;;5034619;28;20029;-73
2021/06/09 01:30:57;;;;;;;28.83;25.75;;;15.90;99.90;;;;;;5052593;28;20036;-73
2021/06/09 01:33:24;;;;;;;27.95;25.05;;;15.80;99.90;;;;;;5051952;28;20036;-74
2021/06/09 01:35:52;;;;;;;29.88;23.15;;;15.80;99.90;;;;;;5054695;28;20040;-74
2021/06/09 01:38:19;;;;;;;25.85;23.13;;;15.70;99.90;;;;;;5068245;28;20043;-74
2021/06/09 01:40:46;;;;;;;29.02;25.23;;;15.70;99.90;;;;;;5052884;28;20040;-74
2021/06/09 01:43:13;;;;;;;30.23;24.92;;;15.60;99.90;;;;;;5052346;28;20048;-74
2021/06/09 01:45:40;;;;;;;30.33;24.50;;;15.60;99.90;;;;;;5052593;28;20366;-74
2021/06/09 01:48:08;;;;;;;27.38;24.52;;;15.60;99.90;;;;;;5068471;28;20039;-74
2021/06/09 01:50:36;;;;;;;28.10;24.17;;;15.50;99.90;;;;;;5065221;28;20036;-74
2021/06/09 01:53:03;;;;;;;31.85;24.35;;;15.40;99.90;;;;;;5060128;28;20469;-74
2021/06/09 01:55:32;;;;;;;28.65;24.58;;;15.40;99.90;;;;;;5055603;28;20033;-74
2021/06/09 01:57:59;;;;;;;30.58;24.42;;;15.40;99.90;;;;;;5052271;28;20028;-74
2021/06/09 02:00:35;;;;;;;32.35;25.92;;;15.40;99.90;;;;;;5051848;28;20025;-74
2021/06/09 02:03:01;;;;;;;30.08;24.83;;;15.40;99.90;;;;;;5051729;28;20061;-73
2021/06/09 02:05:34;;;;;;;29.20;26.15;;;15.40;99.90;;;;;;5051319;28;20041;-74
2021/06/09 02:08:06;;;;;;;28.70;25.65;;;15.50;99.90;;;;;;5051326;28;20136;-74
2021/06/09 02:10:34;;;;;;;31.33;26.88;;;15.50;99.90;;;;;;5063029;28;20473;-74
2021/06/09 02:13:04;;;;;;;32.95;27.42;;;15.50;99.90;;;;;;5051594;28;20032;-74
2021/06/09 02:15:30;;;;;;;31.85;28.48;;;15.50;99.90;;;;;;5060727;28;20037;-74
2021/06/09 02:18:11;;;;;;;31.63;26.67;;;15.60;99.90;;;;;;5058808;28;20032;-74
2021/06/09 02:20:39;;;;;;;;;;;15.50;99.90;;;;;;5066542;28;20047;-73
2021/06/09 02:23:09;;;;;;;30.83;25.20;;;15.50;99.90;;;;;;5056686;28;19913;-73
2021/06/09 02:25:36;;;;;;;28.67;25.48;;;15.50;99.90;;;;;;5051945;28;20040;-74
2021/06/09 02:28:04;;;;;;;28.10;25.05;;;15.50;99.90;;;;;;5060643;28;20033;-74
2021/06/09 02:30:32;;;;;;;26.55;22.52;;;15.40;99.90;;;;;;5057768;28;20036;-73
2021/06/09 02:32:58;;;;;;;25.20;22.13;;;15.30;99.90;;;;;;5071800;28;20381;-74
2021/06/09 02:35:25;;;;;;;25.77;23.15;;;15.30;99.90;;;;;;5059429;28;20406;-73
2021/06/09 02:37:53;;;;;;;27.17;22.88;;;15.20;99.90;;;;;;5067155;28;20036;-73
2021/06/09 02:40:24;;;;;;;30.88;27.00;;;15.20;99.90;;;;;;5068488;28;20350;-74
2021/06/09 02:42:50;;;;;;;30.50;26.05;;;15.20;99.90;;;;;;5051746;28;20045;-74
2021/06/09 02:45:19;;;;;;;28.75;23.70;;;15.20;99.90;;;;;;5056320;28;20379;-73
2021/06/09 02:47:53;;;;;;;28.30;24.52;;;15.10;99.90;;;;;;5066060;28;20387;-75
2021/06/09 02:50:20;;;;;;;28.83;24.63;;;15.00;99.90;;;;;;5051507;28;20417;-75
2021/06/09 02:53:02;;;;;;;35.08;30.60;;;15.00;99.90;;;;;;5051413;28;20033;-74
2021/06/09 02:55:43;;;;;;;36.92;30.05;;;15.00;99.90;;;;;;5052013;28;20040;-75
2021/06/09 02:58:46;;;;;;;42.90;33.17;;;15.00;99.90;;;;;;5070706;28;20036;-74
2021/06/09 03:01:33;;;;;;;38.58;31.38;;;15.00;99.90;;;;;;5051876;28;20049;-74
2021/06/09 03:04:15;;;;;;;39.10;31.50;;;15.10;99.90;;;;;;5038625;28;20049;-74
2021/06/09 03:07:07;;;;;;;34.72;29.92;;;15.00;99.90;;;;;;5054637;28;20390;-74
2021/06/09 03:10:06;;;;;;;36.22;28.60;;;14.90;99.90;;;;;;5055124;28;20374;-74
2021/06/09 03:12:45;;;;;;;37.72;31.30;;;14.80;99.90;;;;;;5041768;28;20049;-75
2021/06/09 03:15:16;;;;;;;33.97;27.20;;;14.90;99.90;;;;;;5070699;28;20049;-74
2021/06/09 03:17:54;;;;;;;37.50;28.92;;;14.70;99.90;;;;;;5055873;28;20033;-74
2021/06/09 03:20:58;;;;;;;35.17;28.67;;;14.60;99.90;;;;;;5037734;28;20036;-74
2021/06/09 03:23:48;;;;;;;37.78;29.75;;;14.60;99.90;;;;;;5063811;28;20037;-74
2021/06/09 03:26:38;;;;;;;40.10;30.77;;;14.60;99.90;;;;;;5053732;28;20037;-74
2021/06/09 03:29:35;;;;;;;37.83;28.95;;;14.60;99.90;;;;;;5063614;28;20032;-74
2021/06/09 03:32:29;;;;;;;37.38;28.33;;;14.50;99.90;;;;;;5063585;28;20041;-74
2021/06/09 03:35:15;;;;;;;35.03;29.25;;;14.50;99.90;;;;;;5052530;28;20484;-74
2021/06/09 03:37:46;;;;;;;37.92;29.77;;;14.50;99.90;;;;;;5060830;28;20044;-74
2021/06/09 03:40:18;;;;;;;37.65;29.35;;;14.50;99.90;;;;;;5054642;28;20402;-74
2021/06/09 03:42:49;;;;;;;37.47;31.13;;;14.50;99.90;;;;;;5063654;28;20036;-74
2021/06/09 03:45:16;;;;;;;38.35;30.67;;;14.70;99.90;;;;;;5071814;28;20035;-74
2021/06/09 03:47:44;;;;;;;38.60;30.15;;;14.70;99.90;;;;;;5058523;28;20070;-74
2021/06/09 03:50:13;;;;;;;35.45;27.45;;;14.80;99.90;;;;;;5053950;28;20389;-74
2021/06/09 03:52:39;;;;;;;35.47;28.58;;;14.80;99.90;;;;;;5053865;28;20045;-74
2021/06/09 03:55:09;;;;;;;30.52;26.15;;;14.80;99.90;;;;;;5054167;28;20041;-74
2021/06/09 03:57:36;;;;;;;30.65;26.23;;;14.80;99.90;;;;;;5053900;28;20052;-74
2021/06/09 04:00:05;;;;;;;28.88;25.83;;;14.80;99.90;;;;;;5054180;28;20037;-74
2021/06/09 04:02:32;;;;;;;28.77;24.30;;;14.80;99.90;;;;;;5054114;28;20057;-74
2021/06/09 04:05:01;;;;;;;26.60;22.85;;;14.80;99.90;;;;;;5053226;28;20041;-74
2021/06/09 04:07:28;;;;;;;29.70;23.67;;;14.80;99.90;;;;;;5053962;28;20402;-74
2021/06/09 04:09:57;;;;;;;26.63;23.88;;;14.80;99.90;;;;;;5054024;28;20041;-74
2021/06/09 04:12:24;;;;;;;25.85;23.08;;;14.90;99.90;;;;;;5052914;28;20048;-74
2021/06/09 04:14:51;;;;;;;26.55;23.85;;;15.00;99.90;;;;;;5053750;28;20055;-74
2021/06/09 04:17:22;;;;;;;26.75;23.88;;;14.90;99.90;;;;;;5063853;28;20047;-73
2021/06/09 04:19:50;;;;;;;25.25;22.65;;;15.10;99.90;;;;;;5073074;28;20036;-74
2021/06/09 04:22:17;;;;;;;23.98;21.52;;;15.60;99.90;;;;;;5058894;28;20032;-74
2021/06/09 04:24:43;;;;;;;19.77;17.90;;;16.20;99.90;;;;;;5072475;28;20037;-74
2021/06/09 04:27:35;;;;;;;18.20;16.42;;;16.50;99.90;;;;;;5060357;28;20028;-74
2021/06/09 04:30:03;;;;;;;18.52;16.70;;;16.40;99.90;;;;;;5054066;28;20474;-74
2021/06/09 04:32:56;;;;;;;19.33;17.30;;;16.70;99.90;;;;;;5053894;28;20033;-74
2021/06/09 04:35:28;;;;;;;16.65;15.13;;;17.00;99.90;;;;;;5053697;28;20045;-74
2021/06/09 04:37:54;;;;;;;16.73;15.20;;;17.40;99.90;;;;;;5053232;28;20045;-74
2021/06/09 04:40:25;;;;;;;14.85;13.27;;;17.80;99.90;;;;;;5053709;28;20025;-74
2021/06/09 04:42:53;;;;;;;16.50;14.68;;;18.20;99.90;;;;;;5054001;28;20041;-75
2021/06/09 04:45:21;;;;;;;15.65;14.05;;;18.00;99.90;;;;;;5052345;28;20056;-72
2021/06/09 04:47:48;;;;;;;21.83;14.68;;;17.70;99.90;;;;;;5052322;28;20020;-73
2021/06/09 04:50:20;;;;;;;17.08;15.38;;;17.50;99.90;;;;;;5063144;28;20497;-70
2021/06/09 04:52:46;;;;;;;16.73;14.98;;;17.60;99.90;;;;;;5047227;28;20071;-69
2021/06/09 04:55:14;;;;;;;19.35;16.80;;;18.00;99.90;;;;;;5061953;28;20029;-69
2021/06/09 04:57:41;;;;;;;18.00;16.33;;;18.90;99.90;;;;;;5053438;28;20032;-69
2021/06/09 05:00:12;;;;;;;19.67;17.83;;;19.40;99.90;;;;;;5060347;28;20035;-69
2021/06/09 05:02:39;;;;;;;18.05;16.33;;;19.80;99.90;;;;;;5060998;28;20465;-69
2021/06/09 05:05:06;;;;;;;20.40;16.00;;;19.70;99.90;;;;;;5072407;28;20040;-69
2021/06/09 05:07:32;;;;;;;18.48;16.67;;;19.60;99.90;;;;;;5053944;28;20041;-70
2021/06/09 05:09:59;;;;;;;16.17;14.75;;;19.60;99.90;;;;;;5052211;28;20041;-70
2021/06/09 05:12:29;;;;;;;18.13;16.50;;;19.70;99.90;;;;;;5053097;28;20033;-70
2021/06/09 05:15:00;;;;;;;;;;;19.90;99.90;;;;;;5053631;28;20382;-70
2021/06/09 05:17:36;;;;;;;18.33;16.77;;;20.10;99.90;;;;;;5052147;28;19915;-72
2021/06/09 05:20:06;;;;;;;19.15;17.45;;;19.80;99.90;;;;;;5053069;28;20033;-72
2021/06/09 05:22:45;;;;;;;19.98;17.98;;;18.90;99.90;;;;;;5052296;28;20047;-71
2021/06/09 05:25:14;;;;;;;20.42;18.27;;;18.10;99.90;;;;;;5058030;28;20035;-73
2021/06/09 05:27:43;;;;;;;21.67;19.48;;;17.80;99.90;;;;;;5060765;28;20029;-73
2021/06/09 05:30:10;;;;;;;26.27;20.60;;;17.80;99.90;;;;;;5052834;28;20029;-72
2021/06/09 05:32:38;;;;;;;21.42;19.33;;;17.80;99.90;;;;;;5034781;28;20040;-73
2021/06/09 05:35:05;;;;;;;22.48;20.20;;;18.00;99.90;;;;;;5053044;28;20041;-72
2021/06/09 05:37:33;;;;;;;22.45;20.08;;;18.20;99.90;;;;;;5061519;28;20060;-73
2021/06/09 05:40:01;;;;;;;21.52;19.38;;;18.40;99.90;;;;;;5062845;28;20044;-72
2021/06/09 05:42:27;;;;;;;19.90;18.02;;;18.70;99.90;;;;;;5053242;28;20647;-72
2021/06/09 05:44:54;;;;;;;20.65;18.65;;;19.10;99.90;;;;;;5052982;28;20402;-72
2021/06/09 05:47:21;;;;;;;19.50;17.73;;;19.10;99.90;;;;;;5051385;28;20029;-72
2021/06/09 05:49:48;;;;;;;20.33;18.27;;;18.90;99.90;;;;;;5061331;28;20033;-72
2021/06/09 05:52:15;;;;;;;19.23;17.33;;;19.00;99.90;;;;;;5052118;28;20037;-73
2021/06/09 05:54:42;;;;;;;19.38;17.30;;;19.50;99.90;;;;;;5052416;28;20040;-73
2021/06/09 05:57:12;;;;;;;19.52;17.17;;;19.70;99.90;;;;;;5035016;28;20447;-73
2021/06/09 05:59:40;;;;;;;17.83;15.83;;;19.70;99.90;;;;;;5053028;28;20085;-72
2021/06/09 06:02:06;;;;;;;19.80;16.33;;;20.00;99.90;;;;;;5063231;28;20039;-73
2021/06/09 06:04:33;;;;;;;17.75;16.05;;;20.20;99.90;;;;;;5062153;28;20103;-72
2021/06/09 06:07:00;;;;;;;18.33;15.30;;;20.10;99.90;;;;;;5061531;28;20028;-72
2021/06/09 06:09:27;;;;;;;18.75;16.90;;;20.00;99.90;;;;;;5057191;28;20477;-72
2021/06/09 06:11:53;;;;;;;19.73;17.83;;;20.20;99.90;;;;;;5054505;28;20044;-72
2021/06/09 06:14:24;;;;;;;18.33;15.98;;;20.20;99.90;;;;;;5048601;28;20033;-74
2021/06/09 06:16:52;;;;;;;17.83;16.13;;;20.30;99.90;;;;;;5051448;28;20052;-72
2021/06/09 06:19:19;;;;;;;17.98;16.38;;;20.30;99.90;;;;;;5059623;28;20371;-72
2021/06/09 06:21:47;;;;;;;17.73;15.98;;;20.40;99.90;;;;;;5051357;28;20388;-72
2021/06/09 06:24:17;;;;;;;18.40;16.60;;;20.20;99.90;;;;;;5045099;28;20049;-72
2021/06/09 06:26:46;;;;;;;;;;;20.30;99.90;;;;;;5069765;28;20041;-72
2021/06/09 06:29:13;;;;;;;17.27;15.53;;;20.50;99.90;;;;;;5064713;28;19912;-75
2021/06/09 06:31:39;;;;;;;16.98;15.38;;;21.00;99.90;;;;;;5050908;28;20041;-74
2021/06/09 06:34:06;;;;;;;19.00;16.10;;;21.70;99.90;;;;;;5062506;28;20052;-75
2021/06/09 06:36:35;;;;;;;16.48;14.93;;;22.60;99.90;;;;;;5056163;28;20069;-74
2021/06/09 06:39:01;;;;;;;16.55;14.95;;;21.80;99.90;;;;;;5056352;28;20028;-74
2021/06/09 06:41:29;;;;;;;16.02;14.43;;;22.90;99.90;;;;;;5055514;28;20032;-74
2021/06/09 06:43:56;;;;;;;14.98;13.68;;;23.50;99.90;;;;;;5055967;28;20033;-74
2021/06/09 06:46:24;;;;;;;15.65;14.35;;;24.40;97.50;;;;;;5055440;28;20037;-75
2021/06/09 06:48:55;;;;;;;16.25;14.63;;;23.90;96.00;;;;;;5065444;28;20043;-76
2021/06/09 06:51:23;;;;;;;14.98;13.55;;;23.30;97.30;;;;;;5064332;28;20029;-75
2021/06/09 06:53:54;;;;;;;15.48;14.07;;;23.00;98.40;;;;;;5055859;28;20040;-76
2021/06/09 06:56:21;;;;;;;15.18;13.88;;;23.20;97.80;;;;;;5055924;28;20028;-75
2021/06/09 06:58:52;;;;;;;15.98;14.57;;;23.20;97.40;;;;;;5056100;28;20485;-75
2021/06/09 07:01:27;;;;;;;15.70;14.05;;;23.20;97.00;;;;;;5074368;28;20029;-75
2021/06/09 07:03:54;;;;;;;15.27;13.88;;;23.90;94.70;;;;;;5068826;28;20040;-75
2021/06/09 07:06:20;;;;;;;14.80;13.32;;;23.70;95.00;;;;;;5065044;28;20028;-75
2021/06/09 07:08:49;;;;;;;16.58;15.07;;;23.60;96.10;;;;;;5064957;28;20048;-74
2021/06/09 07:11:16;;;;;;;16.42;15.00;;;23.40;95.60;;;;;;5055679;28;20025;-75
2021/06/09 07:13:44;;;;;;;17.50;15.73;;;23.10;95.80;;;;;;5055616;28;20055;-76
2021/06/09 07:16:11;;;;;;;16.63;15.13;;;23.10;96.00;;;;;;5055980;28;20036;-75
2021/06/09 07:18:45;;;;;;;16.15;14.75;;;23.00;96.80;;;;;;5054901;28;20044;-76
2021/06/09 07:21:15;;;;;;;15.57;14.27;;;23.80;95.40;;;;;;5055053;28;20044;-75
2021/06/09 07:23:43;;;;;;;20.55;13.27;;;23.70;95.60;;;;;;5055109;28;20458;-75
2021/06/09 07:26:11;;;;;;;16.10;13.93;;;23.80;95.80;;;;;;5069513;28;20029;-76
2021/06/09 07:28:45;;;;;;;14.27;13.07;;;23.70;94.50;;;;;;5058257;28;20025;-75
2021/06/09 07:31:15;;;;;;;14.43;13.07;;;24.20;93.50;;;;;;5069615;28;20028;-76
2021/06/09 07:33:43;;;;;;;13.32;12.02;;;24.70;93.00;;;;;;5056118;28;20366;-76
2021/06/09 07:36:11;;;;;;;12.77;11.55;;;25.30;92.60;;;;;;5054527;28;20052;-75
2021/06/09 07:38:46;;;;;;;15.05;13.25;;;25.40;90.90;;;;;;5065058;28;20385;-75
2021/06/09 07:41:14;;;;;;;14.45;12.98;;;24.90;91.80;;;;;;5055651;28;20029;-75
2021/06/09 07:43:42;;;;;;;15.63;14.27;;;24.20;91.80;;;;;;5071560;28;20046;-75
2021/06/09 07:46:12;;;;;;;15.23;13.75;;;23.80;92.50;;;;;;5068796;28;20466;-75
2021/06/09 07:48:40;;;;;;;15.70;14.10;;;24.20;91.40;;;;;;5062919;28;20474;-75
2021/06/09 07:51:10;;;;;;;12.00;11.00;;;25.00;90.70;;;;;;5073684;28;20024;-76
2021/06/09 07:53:38;;;;;;;13.93;12.68;;;26.50;87.30;;;;;;5062083;28;20033;-74
2021/06/09 07:56:06;;;;;;;14.23;12.18;;;26.00;86.30;;;;;;5055828;28;20033;-73
2021/06/09 07:58:33;;;;;;;14.65;13.38;;;25.30;89.30;;;;;;5054201;28;20033;-73
2021/06/09 08:01:02;;;;;;;14.40;13.18;;;25.50;86.90;;;;;;5054514;28;20033;-72
2021/06/09 08:03:33;;;;;;;12.90;11.77;;;24.40;90.90;;;;;;5058993;28;20041;-73
2021/06/09 08:06:03;;;;;;;14.10;12.73;;;25.20;88.50;;;;;;5056020;28;20029;-72
2021/06/09 08:08:30;;;;;;;15.05;13.75;;;25.30;89.00;;;;;;5053081;28;20044;-72
2021/06/09 08:10:57;;;;;;;13.00;11.80;;;24.30;89.80;;;;;;5053672;28;20041;-73
2021/06/09 08:13:24;;;;;;;13.27;12.07;;;24.70;90.10;;;;;;5064905;28;20037;-73
2021/06/09 08:15:52;;;;;;;14.20;12.93;;;24.30;89.80;;;;;;5062702;28;20460;-73
2021/06/09 08:18:19;;;;;;;13.73;12.32;;;24.30;90.20;;;;;;5055126;28;20041;-72
2021/06/09 08:21:06;;;;;;;13.23;12.10;;;24.70;88.10;;;;;;5063591;28;20041;-72
2021/06/09 08:23:34;;;;;;;12.15;11.05;;;23.90;90.10;;;;;;5058417;28;20034;-73
2021/06/09 08:26:01;;;;;;;12.35;11.25;;;24.10;89.60;;;;;;5059285;28;20036;-73
2021/06/09 08:28:28;;;;;;;11.57;10.43;;;24.30;88.90;;;;;;5063055;28;20045;-73
2021/06/09 08:30:56;;;;;;;10.90;9.90;;;25.80;86.00;;;;;;5066371;28;20033;-73
2021/06/09 08:33:22;;;;;;;12.82;11.73;;;26.00;82.90;;;;;;5057827;28;20040;-73
2021/06/09 08:35:48;;;;;;;11.82;10.75;;;25.00;83.70;;;;;;5057462;28;20029;-73
2021/06/09 08:38:15;;;;;;;9.93;8.93;;;24.40;85.90;;;;;;5061767;28;20029;-75
2021/06/09 08:40:41;;;;;;;11.15;10.25;;;25.70;85.20;;;;;;5063239;28;20028;-74
2021/06/09 08:43:09;;;;;;;10.38;9.43;;;26.50;79.40;;;;;;5051844;28;20035;-73
2021/06/09 08:45:36;;;;;;;10.88;9.85;;;25.60;80.50;;;;;;5055329;28;20037;-73
2021/06/09 08:48:03;;;;;;;11.05;9.98;;;24.90;82.90;;;;;;5039942;28;20044;-73
2021/06/09 08:50:29;;;;;;;11.00;9.85;;;24.70;84.40;;;;;;5060181;28;20039;-73
2021/06/09 08:52:59;;;;;;;10.85;9.82;;;25.30;82.20;;;;;;5063059;28;20025;-72
2021/06/09 08:55:25;;;;;;;10.75;9.65;;;24.80;83.60;;;;;;5060771;28;20036;-74
2021/06/09 08:57:52;;;;;;;11.10;10.00;;;25.10;82.90;;;;;;5074753;28;20025;-74
2021/06/09 09:00:19;;;;;;;10.73;9.88;;;25.90;80.20;;;;;;5059102;28;20036;-74
2021/06/09 09:02:46;;;;;;;10.52;9.43;;;26.30;79.60;;;;;;5057907;28;20405;-73
2021/06/09 09:05:13;;;;;;;10.85;9.75;;;26.20;79.10;;;;;;5059892;28;20044;-74
2021/06/09 09:07:40;;;;;;;10.32;9.43;;;25.80;78.30;;;;;;5054006;28;20025;-75
2021/06/09 09:10:08;;;;;;;10.13;9.07;;;26.30;77.40;;;;;;5056484;28;20029;-75
2021/06/09 09:12:36;;;;;;;10.30;9.40;;;27.10;75.70;;;;;;5057194;28;20045;-74
2021/06/09 09:15:05;;;;;;;10.75;9.80;;;26.50;77.70;;;;;;5057040;28;20033;-73
2021/06/09 09:17:31;;;;;;;11.00;10.00;;;26.40;77.00;;;;;;5056062;28;20025;-73
2021/06/09 09:20:11;;;;;;;11.70;10.50;;;25.90;78.10;;;;;;5060112;28;20029;-74
2021/06/09 09:22:38;;;;;;;10.93;9.82;;;25.70;77.50;;;;;;5052424;28;20041;-74
2021/06/09 09:25:16;;;;;;;9.52;8.63;;;26.40;77.50;;;;;;5057292;28;20055;-72
2021/06/09 09:27:52;;;;;;;9.35;8.45;;;27.10;74.90;;;;;;5057381;28;20610;-73
2021/06/09 09:30:20;;;;;;;9.38;8.48;;;26.30;78.00;;;;;;5065265;28;20032;-73
2021/06/09 09:33:15;;;;;;;10.43;9.52;;;26.00;77.60;;;;;;5064863;28;20033;-73
2021/06/09 09:35:45;;;;;;;11.05;9.95;;;25.70;76.80;;;;;;5021676;28;20129;-72
2021/06/09 09:38:30;;;;;;;10.35;9.32;;;25.30;78.80;;;;;;5022617;28;20026;-75
2021/06/09 09:41:08;;;;;;;9.30;8.50;;;26.00;75.70;;;;;;5032954;28;20048;-74
2021/06/09 09:43:46;;;;;;;11.38;9.85;;;27.90;74.20;;;;;;5019202;28;20048;-74
2021/06/09 09:46:19;;;;;;;9.73;8.00;;;27.10;70.50;;;;;;5030045;28;20053;-73
2021/06/09 09:49:12;;;;;;;10.80;9.70;;;27.30;73.40;;;;;;5024728;28;20029;-71
2021/06/09 09:52:00;;;;;;;11.07;8.85;;;26.50;72.90;;;;;;5022784;28;20056;-72
2021/06/09 09:54:32;;;;;;;9.25;8.35;;;27.00;70.00;;;;;;5028141;28;20034;-72
2021/06/09 09:57:01;;;;;;;10.15;9.00;;;26.70;70.80;;;;;;5020842;28;20026;-73
2021/06/09 09:59:28;;;;;;;10.38;9.38;;;25.80;72.40;;;;;;5025021;28;20029;-72
2021/06/09 10:01:56;;;;;;;9.80;8.95;;;25.90;77.40;;;;;;5032427;28;20026;-71
2021/06/09 10:04:29;;;;;;;8.73;8.02;;;26.30;74.10;;;;;;5030799;28;20049;-72
2021/06/09 10:06:57;;;;;;;9.18;8.27;;;26.00;75.30;;;;;;5029597;28;20387;-72
2021/06/09 10:09:26;;;;;;;8.90;8.10;;;26.40;72.20;;;;;;5026259;28;20045;-73
2021/06/09 10:12:08;;;;;;;9.38;8.35;;;26.70;72.40;;;;;;5019447;28;20037;-73
2021/06/09 10:14:41;;;;;;;9.32;8.50;;;27.00;69.80;;;;;;5022035;28;20037;-73
2021/06/09 10:17:09;;;;;;;10.77;8.20;;;26.80;71.30;;;;;;5015480;28;20025;-72
2021/06/09 10:19:43;;;;;;;8.90;8.05;;;26.60;70.90;;;;;;5022617;28;20384;-75
2021/06/09 10:22:17;;;;;;;10.27;9.27;;;26.00;72.40;;;;;;5026020;28;20045;-74
2021/06/09 10:24:52;;;;;;;9.00;8.15;;;26.10;69.90;;;;;;5029479;28;20025;-72
2021/06/09 10:27:31;;;;;;;9.63;8.70;;;26.10;72.00;;;;;;5024047;28;20386;-74
2021/06/09 10:29:58;;;;;;;9.25;8.45;;;25.40;70.90;;;;;;5026272;28;20025;-73
2021/06/09 10:32:24;;;;;;;8.73;8.02;;;25.20;72.50;;;;;;5014041;28;20054;-72
2021/06/09 10:34:50;;;;;;;9.00;8.10;;;25.20;72.70;;;;;;5052270;28;20036;-73
2021/06/09 10:37:17;;;;;;;9.95;8.98;;;25.90;72.40;;;;;;5058154;28;20035;-73
2021/06/09 10:39:44;;;;;;;9.27;8.38;;;25.80;71.50;;;;;;5058379;28;20682;-73
2021/06/09 10:42:13;;;;;;;9.32;8.48;;;25.60;71.90;;;;;;5051858;28;20025;-72
2021/06/09 10:44:44;;;;;;;9.20;8.17;;;25.60;72.90;;;;;;5033842;28;20037;-72
2021/06/09 10:47:16;;;;;;;8.90;8.00;;;25.20;73.40;;;;;;5051821;28;20366;-72
2021/06/09 10:49:42;;;;;;;8.43;7.63;;;25.30;71.90;;;;;;5062306;28;20451;-71
2021/06/09 10:52:11;;;;;;;9.00;8.20;;;25.40;71.40;;;;;;5057531;28;20025;-72
2021/06/09 10:54:37;;;;;;;8.45;7.75;;;25.50;70.30;;;;;;5059502;28;20048;-73
2021/06/09 10:57:06;;;;;;;7.80;7.00;;;25.90;70.60;;;;;;5051170;28;20044;-72
2021/06/09 10:59:33;;;;;;;7.78;7.07;;;25.90;69.40;;;;;;5055409;28;20044;-72
2021/06/09 11:02:22;;;;;;;7.85;7.03;;;26.00;69.90;;;;;;5056110;28;20051;-76
2021/06/09 11:04:53;;;;;;;7.53;6.73;;;25.90;68.30;;;;;;5052425;28;20039;-74
2021/06/09 11:07:31;;;;;;;7.35;6.75;;;25.90;67.40;;;;;;5059565;28;20393;-76
2021/06/09 11:10:00;;;;;;;8.63;7.53;;;26.20;66.10;;;;;;5058314;28;20048;-72
2021/06/09 11:12:28;;;;;;;7.32;6.57;;;25.80;68.10;;;;;;5051125;28;20036;-73
2021/06/09 11:14:55;;;;;;;7.93;7.22;;;25.30;70.10;;;;;;5053841;28;20052;-74
2021/06/09 11:17:40;;;;;;;7.15;6.47;;;25.20;68.90;;;;;;5059738;28;20036;-73
2021/06/09 11:20:33;;;;;;;6.95;6.22;;;25.40;67.50;;;;;;5049651;28;20047;-73
2021/06/09 11:23:40;;;;;;;7.70;7.07;;;25.80;66.00;;;;;;5052112;28;20041;-75
2021/06/09 11:26:24;;;;;;;6.93;6.25;;;25.60;66.20;;;;;;4963708;28;20066;-74
2021/06/09 11:28:50;;;;;;;7.93;7.22;;;25.70;66.00;;;;;;5047718;28;20044;-74
2021/06/09 11:31:30;;;;;;;7.45;6.75;;;26.00;64.00;;;;;;5054944;28;20037;-74
2021/06/09 11:33:59;;;;;;;;;;;26.00;66.20;;;;;;5055333;28;20049;-76
2021/06/09 11:36:25;;;;;;;9.35;6.85;;;26.10;63.20;;;;;;5063606;28;19919;-73
2021/06/09 11:38:57;;;;;;;7.03;6.30;;;25.90;62.80;;;;;;5056774;28;20394;-72
2021/06/09 11:41:36;;;;;;;7.40;6.32;;;25.90;63.10;;;;;;5054916;28;20033;-72
2021/06/09 11:44:03;;;;;;;6.53;5.95;;;26.10;63.70;;;;;;5054853;28;20036;-72
2021/06/09 11:46:37;;;;;;;7.20;6.47;;;26.10;63.40;;;;;;5054183;28;20037;-71
2021/06/09 11:49:07;;;;;;;6.55;5.95;;;26.40;64.50;;;;;;5062130;28;20028;-72
2021/06/09 11:51:37;;;;;;;6.82;6.18;;;26.10;62.90;;;;;;5065099;28;20044;-73
2021/06/09 11:54:21;;;;;;;6.63;6.03;;;26.00;63.70;;;;;;5040016;28;20037;-71
2021/06/09 11:56:49;;;;;;;6.45;5.85;;;26.10;63.90;;;;;;5053386;28;20581;-74
2021/06/09 11:59:28;;;;;;;6.65;5.88;;;26.30;63.90;;;;;;5054487;28;20033;-75
2021/06/09 12:01:58;;;;;;;6.63;5.97;;;26.30;63.00;;;;;;5054356;28;20446;-74
2021/06/09 12:04:26;;;;;;;7.72;5.97;;;26.40;63.90;;;;;;5054702;28;20048;-75
2021/06/09 12:07:02;;;;;;;6.53;5.75;;;26.20;63.70;;;;;;5054276;28;20041;-73
2021/06/09 12:09:40;;;;;;;6.70;5.65;;;26.10;63.60;;;;;;5071964;28;20035;-74
2021/06/09 12:12:19;;;;;;;6.30;5.70;;;26.40;63.10;;;;;;5055064;28;20450;-73
2021/06/09 12:14:58;;;;;;;7.13;5.20;;;26.40;64.20;;;;;;5055084;28;20044;-75
2021/06/09 12:17:26;;;;;;;5.13;4.70;;;26.80;63.30;;;;;;5081347;28;20346;-75
2021/06/09 12:20:16;;;;;;;5.38;4.97;;;26.90;62.40;;;;;;5079650;28;20025;-75
2021/06/09 12:22:45;;;;;;;6.07;5.47;;;26.80;62.00;;;;;;5063076;28;20366;-74
2021/06/09 12:25:23;;;;;;;6.93;6.32;;;26.70;61.20;;;;;;5054406;28;20029;-75
2021/06/09 12:28:03;;;;;;;6.25;5.32;;;26.50;63.40;;;;;;5053026;28;20489;-74
2021/06/09 12:30:34;;;;;;;6.85;6.13;;;26.20;64.30;;;;;;5053583;28;20029;-75
2021/06/09 12:33:00;;;;;;;7.25;6.40;;;26.10;63.80;;;;;;5053553;28;20044;-75
2021/06/09 12:35:27;;;;;;;6.60;6.00;;;26.20;64.10;;;;;;5044484;28;20033;-75
2021/06/09 12:37:58;;;;;;;6.78;6.07;;;26.80;63.60;;;;;;5072772;28;20032;-75
2021/06/09 12:40:37;;;;;;;6.85;6.18;;;26.80;62.90;;;;;;5056035;28;20025;-74
2021/06/09 12:43:12;;;;;;;6.57;5.97;;;26.30;64.40;;;;;;5066248;28;20036;-74
2021/06/09 12:45:44;;;;;;;6.32;5.72;;;26.30;63.50;;;;;;5063464;28;20118;-75
2021/06/09 12:48:12;;;;;;;7.65;6.90;;;26.40;65.30;;;;;;5061370;28;20476;-75
2021/06/09 12:50:58;;;;;;;6.45;5.70;;;26.70;63.10;;;;;;5054426;28;20028;-75